Time;durP1;ratioP1;P1;durP2;ratioP2;P2;SDS_P1;SDS_P2;PMS_P1;PMS_P2;Temp;Humidity;BMP_temperature;BMP_pressure;BME280_temperature;BME280_humidity;BME280_pressure;Samples;Min_cycle;Max_cycle;Signal;HPM_P1;HPM_P2
2022/03/20 00:01:14;;;;;;;;;;;;;;;;;;5018055;28;19921;-66
2022/03/20 00:03:40;;;;;;;;;;;;;;;;;;5013412;28;19917;-66
2022/03/20 00:06:06;;;;;;;;;;;;;;;;;;5000890;28;19917;-66
2022/03/20 00:08:32;;;;;;;;;;;;;;;;;;5016269;28;19931;-66
2022/03/20 00:11:04;;;;;;;;;;;;;;;;;;5019118;28;19925;-66
2022/03/20 00:13:30;;;;;;;;;;;;;;;;;;5018494;28;19944;-66
2022/03/20 00:15:57;;;;;;;;;;;;;;;;;;5018263;28;20293;-66
2022/03/20 00:18:23;;;;;;;;;;;;;;;;;;5018059;28;19917;-66
2022/03/20 00:20:49;;;;;;;;;;;;;;;;;;5014579;28;20326;-66
2022/03/20 00:23:16;;;;;;;;;;;;;;;;;;5015938;28;20355;-66
2022/03/20 00:25:42;;;;;;;;;;;;;;;;;;5014759;28;19921;-66
2022/03/20 00:28:08;;;;;;;;;;;;;;;;;;5018795;28;19960;-66
2022/03/20 00:30:34;;;;;;;;;;;;;;;;;;5015816;28;20047;-66
2022/03/20 00:33:00;;;;;;;;;;;;;;;;;;5021804;28;19917;-66
2022/03/20 00:35:26;;;;;;;;;;;;;;;;;;5015182;28;19952;-66
2022/03/20 00:37:52;;;;;;;;;;;;;;;;;;5013760;28;20095;-65
2022/03/20 00:40:18;;;;;;;;;;;;;;;;;;5019147;28;20329;-66
2022/03/20 00:42:44;;;;;;;;;;;;;;;;;;5015264;28;19944;-66
2022/03/20 00:45:10;;;;;;;;;;;;;;;;;;5018404;28;19917;-66
2022/03/20 00:47:36;;;;;;;;;;;;;;;;;;4995961;28;20496;-66
2022/03/20 00:50:02;;;;;;;;;;;;;;;;;;5015821;28;20011;-66
2022/03/20 00:52:28;;;;;;;;;;;;;;;;;;5014324;28;19917;-66
2022/03/20 00:54:54;;;;;;;;;;;;;;;;;;5017227;28;19920;-66
2022/03/20 00:57:20;;;;;;;;;;;;;;;;;;5018496;28;19917;-66
2022/03/20 00:59:46;;;;;;;;;;;;;;;;;;5018786;28;23534;-66
2022/03/20 01:02:12;;;;;;;;;;;;;;;;;;5019157;28;19916;-66
2022/03/20 01:04:38;;;;;;;;;;;;;;;;;;5019485;28;19948;-66
2022/03/20 01:07:04;;;;;;;;;;;;;;;;;;5020078;28;19916;-66
2022/03/20 01:09:30;;;;;;;;;;;;;;;;;;5019659;28;19920;-65
2022/03/20 01:11:56;;;;;;;;;;;;;;;;;;5019465;28;20326;-66
2022/03/20 01:14:22;;;;;;;;;;;;;;;;;;5021758;28;19917;-66
2022/03/20 01:16:48;;;;;;;;;;;;;;;;;;5018651;28;20048;-65
2022/03/20 01:19:14;;;;;;;;;;;;;;;;;;5022099;28;20851;-66
2022/03/20 01:21:41;;;;;;;;;;;;;;;;;;5020451;28;20540;-66
2022/03/20 01:24:08;;;;;;;;;;;;;;;;;;5019641;28;19970;-66
2022/03/20 01:26:34;;;;;;;;;;;;;;;;;;5020330;28;21032;-66
2022/03/20 01:29:00;;;;;;;;;;;;;;;;;;5020674;28;19917;-66
2022/03/20 01:31:28;;;;;;;;;;;;;;;;;;5022205;28;21439;-66
2022/03/20 01:33:54;;;;;;;;;;;;;;;;;;5021113;28;20074;-66
2022/03/20 01:36:20;;;;;;;;;;;;;;;;;;5022049;28;19920;-66
2022/03/20 01:38:46;;;;;;;;;;;;;;;;;;4998904;28;19925;-66
2022/03/20 01:41:12;;;;;;;;;;;;;;;;;;5020008;28;19924;-66
2022/03/20 01:43:38;;;;;;;;;;;;;;;;;;5018917;28;19943;-66
2022/03/20 01:46:04;;;;;;;;;;;;;;;;;;5017631;28;19917;-66
2022/03/20 01:48:30;;;;;;;;;;;;;;;;;;5020247;28;19924;-66
2022/03/20 01:50:56;;;;;;;;;;;;;;;;;;5020010;28;19999;-66
2022/03/20 01:53:23;;;;;;;;;;;;;;;;;;5023860;28;19917;-66
2022/03/20 01:55:49;;;;;;;;;;;;;;;;;;5022186;28;20307;-66
2022/03/20 01:58:17;;;;;;;;;;;;;;;;;;5022640;28;19920;-67
2022/03/20 02:00:43;;;;;;;;;;;;;;;;;;5017784;28;20014;-66
2022/03/20 02:03:09;;;;;;;;;;;;;;;;;;5020928;28;20318;-66
2022/03/20 02:05:35;;;;;;;;;;;;;;;;;;5015173;28;19913;-66
2022/03/20 02:08:02;;;;;;;;;;;;;;;;;;5025398;28;20054;-66
2022/03/20 02:10:35;;;;;;;;;;;;;;;;;;5018945;28;19991;-66
2022/03/20 02:13:01;;;;;;;;;;;;;;;;;;5023887;28;20153;-66
2022/03/20 02:15:27;;;;;;;;;;;;;;;;;;5016405;28;20007;-66
2022/03/20 02:17:53;;;;;;;;;;;;;;;;;;5019635;28;19916;-67
2022/03/20 02:20:20;;;;;;;;;;;;;;;;;;5023723;28;20461;-65
2022/03/20 02:22:46;;;;;;;;;;;;;;;;;;5016625;28;25657;-66
2022/03/20 02:25:14;;;;;;;;;;;;;;;;;;5022806;28;19920;-65
2022/03/20 02:27:40;;;;;;;;;;;;;;;;;;5020170;28;20551;-65
2022/03/20 02:30:12;;;;;;;;;;;;;;;;;;5001669;28;20385;-66
2022/03/20 02:32:38;;;;;;;;;;;;;;;;;;5018238;28;19920;-65
2022/03/20 02:35:04;;;;;;;;;;;;;;;;;;5023804;28;20367;-65
2022/03/20 02:37:30;;;;;;;;;;;;;;;;;;5022453;28;19923;-65
2022/03/20 02:39:56;;;;;;;;;;;;;;;;;;5021401;28;19925;-65
2022/03/20 02:42:23;;;;;;;;;;;;;;;;;;5020130;28;20328;-65
2022/03/20 02:44:49;;;;;;;;;;;;;;;;;;5015619;28;20244;-65
2022/03/20 02:47:15;;;;;;;;;;;;;;;;;;5022894;28;20375;-65
2022/03/20 02:49:41;;;;;;;;;;;;;;;;;;5020248;28;19921;-65
2022/03/20 02:52:07;;;;;;;;;;;;;;;;;;5023472;28;19924;-65
2022/03/20 02:54:33;;;;;;;;;;;;;;;;;;5021926;28;19917;-65
2022/03/20 02:56:59;;;;;;;;;;;;;;;;;;5003051;28;19961;-65
2022/03/20 02:59:25;;;;;;;;;;;;;;;;;;5020065;28;19975;-65
2022/03/20 03:01:50;;;;;;;;;;;;;;;;;;5015375;28;19952;-65
2022/03/20 03:04:17;;;;;;;;;;;;;;;;;;5014803;28;20073;-65
2022/03/20 03:06:43;;;;;;;;;;;;;;;;;;5016904;28;19959;-65
2022/03/20 03:11:53;;;;;;;;;;;;;;;;;;5020064;28;19924;-65
2022/03/20 03:17:04;;;;;;;;;;;;;;;;;;5021925;28;19933;-65
2022/03/20 03:19:29;;;;;;;;;;;;;;;;;;5016547;28;19921;-65
2022/03/20 03:21:55;;;;;;;;;;;;;;;;;;5025294;28;19920;-65
2022/03/20 03:24:21;;;;;;;;;;;;;;;;;;5022167;28;20283;-65
2022/03/20 03:26:47;;;;;;;;;;;;;;;;;;5015701;28;19925;-65
2022/03/20 03:29:13;;;;;;;;;;;;;;;;;;5022830;28;19941;-65
2022/03/20 03:31:39;;;;;;;;;;;;;;;;;;5014690;28;20351;-65
2022/03/20 03:36:50;;;;;;;;;;;;;;;;;;5017187;28;19941;-65
2022/03/20 03:39:16;;;;;;;;;;;;;;;;;;5022743;28;19924;-65
2022/03/20 03:41:42;;;;;;;;;;;;;;;;;;5014893;28;20003;-65
2022/03/20 03:44:08;;;;;;;;;;;;;;;;;;5024855;28;19983;-65
2022/03/20 03:46:34;;;;;;;;;;;;;;;;;;5019141;28;20375;-65
2022/03/20 03:49:01;;;;;;;;;;;;;;;;;;5023741;28;19925;-65
2022/03/20 03:51:27;;;;;;;;;;;;;;;;;;5025716;28;19923;-65
2022/03/20 03:53:53;;;;;;;;;;;;;;;;;;5018797;28;20233;-65
2022/03/20 03:56:21;;;;;;;;;;;;;;;;;;5019458;28;19928;-65
2022/03/20 03:58:47;;;;;;;;;;;;;;;;;;5018094;28;20755;-65
2022/03/20 04:01:13;;;;;;;;;;;;;;;;;;5008813;28;20002;-65
2022/03/20 04:03:39;;;;;;;;;;;;;;;;;;5016615;28;20000;-65
2022/03/20 04:06:05;;;;;;;;;;;;;;;;;;5024841;28;19917;-65
2022/03/20 04:08:32;;;;;;;;;;;;;;;;;;5014906;28;20030;-65
2022/03/20 04:10:58;;;;;;;;;;;;;;;;;;5019802;28;19924;-64
2022/03/20 04:13:24;;;;;;;;;;;;;;;;;;5018175;28;19964;-65
2022/03/20 04:15:52;;;;;;;;;;;;;;;;;;5017295;28;20460;-66
2022/03/20 04:18:18;;;;;;;;;;;;;;;;;;5023026;28;19970;-66
2022/03/20 04:20:44;;;;;;;;;;;;;;;;;;5017242;28;19917;-64
2022/03/20 04:25:55;;;;;;;;;;;;;;;;;;5018184;28;19975;-64
2022/03/20 04:28:21;;;;;;;;;;;;;;;;;;5016920;28;19921;-65
2022/03/20 04:30:48;;;;;;;;;;;;;;;;;;5016072;28;19920;-65
2022/03/20 04:33:14;;;;;;;;;;;;;;;;;;5022053;28;19920;-65
2022/03/20 04:35:40;;;;;;;;;;;;;;;;;;5022069;28;19921;-65
2022/03/20 04:38:06;;;;;;;;;;;;;;;;;;5026492;28;19964;-65
2022/03/20 04:40:32;;;;;;;;;;;;;;;;;;5022429;28;20308;-65
2022/03/20 04:42:59;;;;;;;;;;;;;;;;;;5025783;28;20470;-65
2022/03/20 04:45:26;;;;;;;;;;;;;;;;;;5025066;28;19920;-65
2022/03/20 04:58:51;;;;;;;;;;;;;;;;;;5020787;28;20295;-65
2022/03/20 05:01:17;;;;;;;;;;;;;;;;;;5018451;28;19920;-65
2022/03/20 05:03:43;;;;;;;;;;;;;;;;;;5000645;28;20354;-65
2022/03/20 05:06:09;;;;;;;;;;;;;;;;;;5026389;28;20425;-65
2022/03/20 05:08:35;;;;;;;;;;;;;;;;;;5004573;28;19975;-65
2022/03/20 05:13:46;;;;;;;;;;;;;;;;;;5017790;28;19940;-65
2022/03/20 05:16:12;;;;;;;;;;;;;;;;;;5022973;28;20481;-65
2022/03/20 05:18:38;;;;;;;;;;;;;;;;;;5003662;28;20063;-65
2022/03/20 05:21:04;;;;;;;;;;;;;;;;;;5009458;28;19921;-65
2022/03/20 05:23:30;;;;;;;;;;;;;;;;;;5021382;28;20428;-65
2022/03/20 05:25:56;;;;;;;;;;;;;;;;;;5004819;28;19925;-65
2022/03/20 05:28:22;;;;;;;;;;;;;;;;;;5027316;28;20611;-65
2022/03/20 05:30:48;;;;;;;;;;;;;;;;;;5020501;28;19925;-65
2022/03/20 05:33:16;;;;;;;;;;;;;;;;;;5021475;28;19920;-65
2022/03/20 05:35:43;;;;;;;;;;;;;;;;;;5021629;28;19920;-65
2022/03/20 05:38:09;;;;;;;;;;;;;;;;;;5021740;28;19974;-65
2022/03/20 05:40:35;;;;;;;;;;;;;;;;;;5017149;28;19928;-65
2022/03/20 05:43:01;;;;;;;;;;;;;;;;;;5020614;28;19913;-65
2022/03/20 05:45:27;;;;;;;;;;;;;;;;;;5024366;28;19921;-65
2022/03/20 05:47:53;;;;;;;;;;;;;;;;;;5025055;28;19936;-65
2022/03/20 05:50:19;;;;;;;;;;;;;;;;;;5021692;28;19924;-65
2022/03/20 05:52:45;;;;;;;;;;;;;;;;;;5019785;28;20046;-64
2022/03/20 05:55:11;;;;;;;;;;;;;;;;;;5024818;28;20552;-65
2022/03/20 06:00:22;;;;;;;;;;;;;;;;;;5022621;28;20531;-65
2022/03/20 06:02:48;;;;;;;;;;;;;;;;;;5019961;28;20665;-65
2022/03/20 06:05:14;;;;;;;;;;;;;;;;;;5005959;28;19962;-65
2022/03/20 06:07:40;;;;;;;;;;;;;;;;;;5003926;28;19960;-65
2022/03/20 06:10:06;;;;;;;;;;;;;;;;;;5022084;28;20584;-65
2022/03/20 06:12:32;;;;;;;;;;;;;;;;;;5018357;28;19986;-65
2022/03/20 06:14:58;;;;;;;;;;;;;;;;;;5019480;28;20264;-66
2022/03/20 06:17:25;;;;;;;;;;;;;;;;;;5022643;28;20027;-65
2022/03/20 06:19:52;;;;;;;;;;;;;;;;;;5020544;28;19917;-66
2022/03/20 06:22:18;;;;;;;;;;;;;;;;;;5022675;28;19990;-65
2022/03/20 06:24:44;;;;;;;;;;;;;;;;;;5021373;28;19917;-66
2022/03/20 06:27:10;;;;;;;;;;;;;;;;;;5019420;28;19917;-64
2022/03/20 06:29:36;;;;;;;;;;;;;;;;;;5021120;28;19956;-65
2022/03/20 06:32:02;;;;;;;;;;;;;;;;;;5022017;28;19912;-66
2022/03/20 06:34:28;;;;;;;;;;;;;;;;;;5001432;28;19923;-65
2022/03/20 06:36:57;;;;;;;;;;;;;;;;;;5007450;28;20423;-66
2022/03/20 06:39:23;;;;;;;;;;;;;;;;;;5021683;28;19921;-66
2022/03/20 06:41:49;;;;;;;;;;;;;;;;;;5020743;28;19924;-66
2022/03/20 06:44:15;;;;;;;;;;;;;;;;;;5022683;28;20031;-66
2022/03/20 06:46:41;;;;;;;;;;;;;;;;;;5016851;28;20369;-66
2022/03/20 06:49:09;;;;;;;;;;;;;;;;;;5021783;28;19917;-66
2022/03/20 06:51:35;;;;;;;;;;;;;;;;;;5015814;28;19921;-66
2022/03/20 06:54:01;;;;;;;;;;;;;;;;;;5018644;28;19951;-66
2022/03/20 06:56:29;;;;;;;;;;;;;;;;;;5017425;28;19920;-66
2022/03/20 06:58:58;;;;;;;;;;;;;;;;;;5018507;28;20381;-66
2022/03/20 07:01:24;;;;;;;;;;;;;;;;;;5022358;28;19958;-66
2022/03/20 07:03:50;;;;;;;;;;;;;;;;;;5018679;28;19921;-66
2022/03/20 07:06:16;;;;;;;;;;;;;;;;;;5023496;28;20425;-66
2022/03/20 07:08:42;;;;;;;;;;;;;;;;;;4996444;28;19936;-66
2022/03/20 07:11:08;;;;;;;;;;;;;;;;;;4997927;28;20371;-65
2022/03/20 07:13:50;;;;;;;;;;;;;;;;;;4994426;28;19975;-66
2022/03/20 07:16:16;;;;;;;;;;;;;;;;;;5000302;28;19943;-65
2022/03/20 07:18:42;;;;;;;;;;;;;;;;;;4998924;28;20720;-65
2022/03/20 07:21:08;;;;;;;;;;;;;;;;;;5000639;28;21115;-65
2022/03/20 07:23:34;;;;;;;;;;;;;;;;;;4997018;28;19929;-66
2022/03/20 07:31:30;;;;;;;;;;;;;;;;;;4996859;28;19983;-66
2022/03/20 07:33:55;;;;;;;;;;;;;;;;;;5004122;28;20000;-66
2022/03/20 07:36:22;;;;;;;;;;;;;;;;;;5001169;28;19975;-65
2022/03/20 07:38:50;;;;;;;;;;;;;;;;;;4997794;28;20745;-65
2022/03/20 07:41:16;;;;;;;;;;;;;;;;;;5004893;28;20331;-65
2022/03/20 07:43:42;;;;;;;;;;;;;;;;;;4998861;28;20390;-66
2022/03/20 07:46:08;;;;;;;;;;;;;;;;;;4999851;28;19917;-65
2022/03/20 07:48:34;;;;;;;;;;;;;;;;;;4997279;28;20133;-66
2022/03/20 07:51:00;;;;;;;;;;;;;;;;;;5001864;28;20039;-66
2022/03/20 07:53:26;;;;;;;;;;;;;;;;;;5000090;28;20409;-66
2022/03/20 07:55:52;;;;;;;;;;;;;;;;;;4999353;28;20368;-66
2022/03/20 07:58:19;;;;;;;;;;;;;;;;;;4998321;28;19924;-66
2022/03/20 08:00:45;;;;;;;;;;;;;;;;;;4998073;28;19917;-65
2022/03/20 08:03:11;;;;;;;;;;;;;;;;;;4998699;28;19952;-66
2022/03/20 08:05:37;;;;;;;;;;;;;;;;;;4990081;28;20520;-68
2022/03/20 08:08:03;;;;;;;;;;;;;;;;;;5010933;28;19932;-65
2022/03/20 08:10:29;;;;;;;;;;;;;;;;;;5018880;28;19960;-66
2022/03/20 08:12:55;;;;;;;;;;;;;;;;;;5019016;28;20469;-67
2022/03/20 08:15:21;;;;;;;;;;;;;;;;;;5021261;28;19951;-66
2022/03/20 08:17:50;;;;;;;;;;;;;;;;;;5015609;28;20383;-67
2022/03/20 08:20:16;;;;;;;;;;;;;;;;;;5018637;28;20374;-66
2022/03/20 08:22:42;;;;;;;;;;;;;;;;;;5014753;28;19916;-67
2022/03/20 08:25:10;;;;;;;;;;;;;;;;;;5000816;28;19994;-66
2022/03/20 08:27:36;;;;;;;;;;;;;;;;;;5013647;28;19948;-66
2022/03/20 08:30:01;;;;;;;;;;;;;;;;;;5017779;28;20020;-66
2022/03/20 08:32:27;;;;;;;;;;;;;;;;;;5014172;28;20605;-66
2022/03/20 08:34:53;;;;;;;;;;;;;;;;;;5021050;28;20397;-66
2022/03/20 08:37:19;;;;;;;;;;;;;;;;;;5016762;28;19924;-66
2022/03/20 08:39:45;;;;;;;;;;;;;;;;;;5017462;28;19967;-66
2022/03/20 08:42:11;;;;;;;;;;;;;;;;;;5017198;28;19924;-66
2022/03/20 08:44:37;;;;;;;;;;;;;;;;;;5016051;28;20228;-66
2022/03/20 08:47:03;;;;;;;;;;;;;;;;;;5021766;28;20055;-66
2022/03/20 08:49:29;;;;;;;;;;;;;;;;;;5016123;28;19959;-66
2022/03/20 08:51:55;;;;;;;;;;;;;;;;;;5020742;28;19992;-65
2022/03/20 08:54:22;;;;;;;;;;;;;;;;;;5018482;28;20292;-66
2022/03/20 08:56:48;;;;;;;;;;;;;;;;;;5015448;28;20647;-66
2022/03/20 08:59:14;;;;;;;;;;;;;;;;;;5020149;28;19920;-66
2022/03/20 09:01:40;;;;;;;;;;;;;;;;;;5017782;28;20449;-66
2022/03/20 09:04:07;;;;;;;;;;;;;;;;;;5020275;28;19917;-65
2022/03/20 09:06:33;;;;;;;;;;;;;;;;;;5017286;28;20374;-67
2022/03/20 09:08:59;;;;;;;;;;;;;;;;;;5017744;28;19929;-66
2022/03/20 09:11:27;;;;;;;;;;;;;;;;;;5004147;28;20388;-66
2022/03/20 09:13:53;;;;;;;;;;;;;;;;;;5018051;28;20369;-65
2022/03/20 09:19:07;;;;;;;;;;;;;;;;;;5016959;28;20012;-66
2022/03/20 09:21:33;;;;;;;;;;;;;;;;;;5022141;28;19920;-66
2022/03/20 09:24:00;;;;;;;;;;;;;;;;;;5022803;28;19959;-65
2022/03/20 09:26:26;;;;;;;;;;;;;;;;;;5021524;28;19917;-66
2022/03/20 09:28:52;;;;;;;;;;;;;;;;;;5016880;28;19917;-66
2022/03/20 09:31:19;;;;;;;;;;;;;;;;;;5018318;28;19927;-67
2022/03/20 09:33:45;;;;;;;;;;;;;;;;;;5014968;28;20283;-66
2022/03/20 09:36:11;;;;;;;;;;;;;;;;;;5013852;28;19921;-66
2022/03/20 09:38:37;;;;;;;;;;;;;;;;;;5014510;28;19924;-66
2022/03/20 09:41:09;;;;;;;;;;;;;;;;;;5015381;28;19925;-66
2022/03/20 09:43:35;;;;;;;;;;;;;;;;;;5016952;28;20004;-65
2022/03/20 09:46:01;;;;;;;;;;;;;;;;;;5020896;28;20366;-66
2022/03/20 09:48:27;;;;;;;;;;;;;;;;;;5018950;28;19917;-66
2022/03/20 09:50:53;;;;;;;;;;;;;;;;;;5017223;28;19958;-65
2022/03/20 09:53:19;;;;;;;;;;;;;;;;;;5017580;28;20004;-65
2022/03/20 09:55:46;;;;;;;;;;;;;;;;;;5013922;28;19925;-65
2022/03/20 09:58:12;;;;;;;;;;;;;;;;;;5016067;28;19924;-65
2022/03/20 10:00:38;;;;;;;;;;;;;;;;;;5017601;28;20340;-66
2022/03/20 10:03:06;;;;;;;;;;;;;;;;;;5016946;28;19928;-66
2022/03/20 10:05:32;;;;;;;;;;;;;;;;;;5010689;28;20441;-66
2022/03/20 10:07:58;;;;;;;;;;;;;;;;;;5017871;28;20283;-66
2022/03/20 10:10:25;;;;;;;;;;;;;;;;;;5014845;28;20395;-65
2022/03/20 10:12:53;;;;;;;;;;;;;;;;;;5013344;28;19917;-66
2022/03/20 10:15:19;;;;;;;;;;;;;;;;;;5016585;28;20024;-65
2022/03/20 10:17:45;;;;;;;;;;;;;;;;;;4998544;28;19924;-66
2022/03/20 10:20:11;;;;;;;;;;;;;;;;;;5017339;28;19939;-70
2022/03/20 10:22:37;;;;;;;;;;;;;;;;;;5014005;28;19916;-68
2022/03/20 10:25:02;;;;;;;;;;;;;;;;;;5018784;28;19929;-68
2022/03/20 10:27:28;;;;;;;;;;;;;;;;;;4996829;28;20359;-68
2022/03/20 10:29:54;;;;;;;;;;;;;;;;;;4979235;28;19923;-68
2022/03/20 10:32:20;;;;;;;;;;;;;;;;;;5021944;28;19923;-68
2022/03/20 10:34:47;;;;;;;;;;;;;;;;;;5009318;28;19916;-68
2022/03/20 10:37:13;;;;;;;;;;;;;;;;;;5024051;28;20298;-67
2022/03/20 10:39:42;;;;;;;;;;;;;;;;;;5005729;28;19928;-68
2022/03/20 10:42:08;;;;;;;;;;;;;;;;;;5024745;28;19990;-67
2022/03/20 10:44:34;;;;;;;;;;;;;;;;;;5020138;28;19921;-69
2022/03/20 10:47:00;;;;;;;;;;;;;;;;;;5022412;28;20012;-68
2022/03/20 10:49:26;;;;;;;;;;;;;;;;;;5021550;28;20003;-68
2022/03/20 10:51:52;;;;;;;;;;;;;;;;;;5006098;28;19943;-68
2022/03/20 10:54:22;;;;;;;;;;;;;;;;;;5030059;28;19955;-68
2022/03/20 10:56:48;;;;;;;;;;;;;;;;;;5011276;28;19925;-68
2022/03/20 10:59:14;;;;;;;;;;;;;;;;;;5015627;28;19924;-68
2022/03/20 11:01:40;;;;;;;;;;;;;;;;;;5019561;28;19940;-68
2022/03/20 11:04:06;;;;;;;;;;;;;;;;;;5003503;28;20650;-68
2022/03/20 11:06:32;;;;;;;;;;;;;;;;;;5015014;28;19916;-69
2022/03/20 11:09:02;;;;;;;;;;;;;;;;;;5024403;28;19929;-68
2022/03/20 11:11:28;;;;;;;;;;;;;;;;;;5018063;28;20008;-67
2022/03/20 11:13:54;;;;;;;;;;;;;;;;;;5008206;28;19921;-66
2022/03/20 11:16:20;;;;;;;;;;;;;;;;;;5004264;28;20381;-71
2022/03/20 11:18:46;;;;;;;;;;;;;;;;;;5011753;28;19953;-72
2022/03/20 11:21:12;;;;;;;;;;;;;;;;;;5017864;28;19917;-70
2022/03/20 11:23:38;;;;;;;;;;;;;;;;;;5012883;28;19986;-70
2022/03/20 11:26:04;;;;;;;;;;;;;;;;;;5012400;28;19991;-70
2022/03/20 11:28:30;;;;;;;;;;;;;;;;;;5017512;28;20674;-70
2022/03/20 11:30:56;;;;;;;;;;;;;;;;;;5020018;28;20047;-70
2022/03/20 11:33:22;;;;;;;;;;;;;;;;;;5023201;28;21247;-71
2022/03/20 11:35:48;;;;;;;;;;;;;;;;;;5020034;28;20481;-70
2022/03/20 11:38:14;;;;;;;;;;;;;;;;;;5023654;28;19925;-70
2022/03/20 11:40:41;;;;;;;;;;;;;;;;;;5023036;28;20770;-71
2022/03/20 11:43:07;;;;;;;;;;;;;;;;;;5004712;28;19924;-71
2022/03/20 11:45:33;;;;;;;;;;;;;;;;;;5008055;28;19913;-70
2022/03/20 11:47:58;;;;;;;;;;;;;;;;;;5019771;28;19928;-70
2022/03/20 11:50:25;;;;;;;;;;;;;;;;;;5022091;28;19971;-71
2022/03/20 11:52:53;;;;;;;;;;;;;;;;;;5018180;28;19943;-70
2022/03/20 11:55:19;;;;;;;;;;;;;;;;;;5019752;28;19917;-70
2022/03/20 11:57:46;;;;;;;;;;;;;;;;;;5004290;28;19997;-71
2022/03/20 12:00:12;;;;;;;;;;;;;;;;;;5023136;28;19931;-70
2022/03/20 12:02:38;;;;;;;;;;;;;;;;;;5026240;28;19917;-71
2022/03/20 12:05:04;;;;;;;;;;;;;;;;;;5024585;28;19917;-71
2022/03/20 12:07:30;;;;;;;;;;;;;;;;;;5023527;28;19986;-71
2022/03/20 12:09:56;;;;;;;;;;;;;;;;;;5021603;28;19927;-72
2022/03/20 12:12:22;;;;;;;;;;;;;;;;;;5023068;28;19929;-72
2022/03/20 12:14:48;;;;;;;;;;;;;;;;;;5015581;28;20492;-72
2022/03/20 12:17:14;;;;;;;;;;;;;;;;;;5006274;28;19956;-72
2022/03/20 12:19:41;;;;;;;;;;;;;;;;;;5022004;28;20319;-72
2022/03/20 12:22:10;;;;;;;;;;;;;;;;;;5022361;28;20561;-72
2022/03/20 12:24:37;;;;;;;;;;;;;;;;;;5020801;28;20360;-72
2022/03/20 12:27:03;;;;;;;;;;;;;;;;;;5022703;28;20000;-72
2022/03/20 12:29:29;;;;;;;;;;;;;;;;;;5019696;28;20356;-72
2022/03/20 12:31:55;;;;;;;;;;;;;;;;;;5017228;28;20412;-72
2022/03/20 12:34:21;;;;;;;;;;;;;;;;;;5008266;28;20476;-72
2022/03/20 12:36:47;;;;;;;;;;;;;;;;;;5021101;28;22180;-72
2022/03/20 12:39:13;;;;;;;;;;;;;;;;;;5009509;28;20031;-72
2022/03/20 12:41:39;;;;;;;;;;;;;;;;;;5008275;28;20122;-70
2022/03/20 12:44:08;;;;;;;;;;;;;;;;;;5001042;28;20087;-72
2022/03/20 12:46:34;;;;;;;;;;;;;;;;;;5018153;28;20020;-72
2022/03/20 12:49:00;;;;;;;;;;;;;;;;;;5023664;28;19946;-72
2022/03/20 12:51:26;;;;;;;;;;;;;;;;;;5021987;28;19924;-72
2022/03/20 12:53:53;;;;;;;;;;;;;;;;;;5024299;28;20396;-72
2022/03/20 12:56:28;;;;;;;;;;;;;;;;;;5019324;28;19921;-72
2022/03/20 12:58:54;;;;;;;;;;;;;;;;;;5030575;28;19923;-72
2022/03/20 13:01:21;;;;;;;;;;;;;;;;;;5009996;28;20366;-72
2022/03/20 13:03:48;;;;;;;;;;;;;;;;;;5019226;28;20266;-72
2022/03/20 13:06:14;;;;;;;;;;;;;;;;;;5006399;28;19917;-72
2022/03/20 13:08:40;;;;;;;;;;;;;;;;;;5000987;28;19987;-72
2022/03/20 13:11:48;;;;;;;;;;;;;;;;;;5026287;28;19920;-73
2022/03/20 13:13:53;;;;;;;;;;;;;;;;;;5021208;28;19913;-72
2022/03/20 13:16:24;;;;;;;;;;;;;;;;;;5012300;28;20390;-72
2022/03/20 13:18:49;;;;;;;;;;;;;;;;;;5022244;28;20027;-72
2022/03/20 13:21:15;;;;;;;;;;;;;;;;;;5030571;28;20490;-72
2022/03/20 13:23:41;;;;;;;;;;;;;;;;;;5019286;28;19952;-72
2022/03/20 13:26:08;;;;;;;;;;;;;;;;;;5025368;28;19921;-72
2022/03/20 13:28:34;;;;;;;;;;;;;;;;;;5025684;28;20440;-72
2022/03/20 13:31:01;;;;;;;;;;;;;;;;;;5024668;28;19921;-72
2022/03/20 13:33:27;;;;;;;;;;;;;;;;;;5026987;28;20359;-71
2022/03/20 13:35:53;;;;;;;;;;;;;;;;;;5026533;28;19921;-73
2022/03/20 13:38:19;;;;;;;;;;;;;;;;;;5005064;28;20373;-72
2022/03/20 13:40:45;;;;;;;;;;;;;;;;;;5026338;28;19956;-71
2022/03/20 13:43:11;;;;;;;;;;;;;;;;;;5011633;28;19913;-72
2022/03/20 13:45:38;;;;;;;;;;;;;;;;;;5029316;28;19916;-72
2022/03/20 13:48:04;;;;;;;;;;;;;;;;;;5018301;28;19917;-72
2022/03/20 13:50:30;;;;;;;;;;;;;;;;;;5003466;28;19917;-72
2022/03/20 13:52:56;;;;;;;;;;;;;;;;;;5021706;28;19994;-71
2022/03/20 13:55:23;;;;;;;;;;;;;;;;;;5021591;28;20394;-71
2022/03/20 13:57:49;;;;;;;;;;;;;;;;;;5019340;28;20237;-72
2022/03/20 14:00:15;;;;;;;;;;;;;;;;;;5027039;28;19924;-71
2022/03/20 14:02:41;;;;;;;;;;;;;;;;;;5026069;28;19917;-72
2022/03/20 14:05:07;;;;;;;;;;;;;;;;;;5029330;28;20332;-71
2022/03/20 14:07:33;;;;;;;;;;;;;;;;;;5021270;28;19931;-71
2022/03/20 14:09:59;;;;;;;;;;;;;;;;;;5006463;28;19921;-72
2022/03/20 14:12:28;;;;;;;;;;;;;;;;;;5004185;28;20003;-72
2022/03/20 14:14:54;;;;;;;;;;;;;;;;;;5012689;28;19924;-72
2022/03/20 14:17:20;;;;;;;;;;;;;;;;;;5026069;28;19921;-72
2022/03/20 14:19:46;;;;;;;;;;;;;;;;;;5020680;28;20728;-71
2022/03/20 14:22:12;;;;;;;;;;;;;;;;;;5011071;28;20481;-71
2022/03/20 14:24:38;;;;;;;;;;;;;;;;;;5021018;28;19970;-72
2022/03/20 14:27:04;;;;;;;;;;;;;;;;;;5028001;28;19956;-71
2022/03/20 14:40:29;;;;;;;;;;;;;;;;;;5016974;28;19952;-73
2022/03/20 14:42:55;;;;;;;;;;;;;;;;;;5016746;28;20438;-73
2022/03/20 14:45:21;;;;;;;;;;;;;;;;;;5022959;28;20221;-73
2022/03/20 14:47:49;;;;;;;;;;;;;;;;;;4982634;28;20370;-73
2022/03/20 14:50:15;;;;;;;;;;;;;;;;;;5023165;28;19944;-73
2022/03/20 14:52:42;;;;;;;;;;;;;;;;;;5016277;28;20355;-73
2022/03/20 14:55:11;;;;;;;;;;;;;;;;;;5020484;28;19923;-73
2022/03/20 14:57:36;;;;;;;;;;;;;;;;;;5013185;28;20185;-71
2022/03/20 15:00:03;;;;;;;;;;;;;;;;;;5016072;28;19917;-68
2022/03/20 15:02:29;;;;;;;;;;;;;;;;;;5019373;28;20485;-70
2022/03/20 15:04:55;;;;;;;;;;;;;;;;;;5002141;28;19916;-71
2022/03/20 15:07:21;;;;;;;;;;;;;;;;;;5013096;28;20379;-72
2022/03/20 15:12:31;;;;;;;;;;;;;;;;;;5011685;28;20288;-70
2022/03/20 15:14:57;;;;;;;;;;;;;;;;;;5011504;28;19925;-72
2022/03/20 15:17:23;;;;;;;;;;;;;;;;;;5013469;28;19976;-71
2022/03/20 15:19:49;;;;;;;;;;;;;;;;;;5015125;28;19955;-70
2022/03/20 15:22:15;;;;;;;;;;;;;;;;;;4999192;28;19921;-70
2022/03/20 15:24:41;;;;;;;;;;;;;;;;;;5011498;28;19952;-71
2022/03/20 15:27:07;;;;;;;;;;;;;;;;;;5003119;28;20138;-70
2022/03/20 15:29:33;;;;;;;;;;;;;;;;;;5010190;28;20367;-70
2022/03/20 15:32:01;;;;;;;;;;;;;;;;;;5014072;28;19917;-71
2022/03/20 15:34:27;;;;;;;;;;;;;;;;;;5016192;28;19917;-70
2022/03/20 15:36:54;;;;;;;;;;;;;;;;;;5011297;28;19964;-71
2022/03/20 15:39:21;;;;;;;;;;;;;;;;;;5015260;28;19979;-71
2022/03/20 15:41:47;;;;;;;;;;;;;;;;;;5009414;28;19916;-72
2022/03/20 15:44:13;;;;;;;;;;;;;;;;;;5002012;28;19945;-71
2022/03/20 15:46:39;;;;;;;;;;;;;;;;;;5007976;28;19924;-70
2022/03/20 15:49:05;;;;;;;;;;;;;;;;;;5002225;28;20610;-71
2022/03/20 15:51:31;;;;;;;;;;;;;;;;;;5001459;28;20316;-70
2022/03/20 15:53:57;;;;;;;;;;;;;;;;;;5001371;28;19917;-71
2022/03/20 15:56:24;;;;;;;;;;;;;;;;;;5013525;28;20294;-71
2022/03/20 15:58:51;;;;;;;;;;;;;;;;;;5007342;28;19982;-70
2022/03/20 16:01:20;;;;;;;;;;;;;;;;;;5015420;28;19959;-71
2022/03/20 16:03:46;;;;;;;;;;;;;;;;;;5010214;28;19937;-71
2022/03/20 16:06:12;;;;;;;;;;;;;;;;;;5012045;28;20051;-71
2022/03/20 16:08:38;;;;;;;;;;;;;;;;;;5010345;28;20055;-70
2022/03/20 16:11:03;;;;;;;;;;;;;;;;;;5015587;28;19921;-70
2022/03/20 16:13:30;;;;;;;;;;;;;;;;;;5010660;28;20456;-69
2022/03/20 16:15:57;;;;;;;;;;;;;;;;;;5001560;28;20276;-70
2022/03/20 16:18:23;;;;;;;;;;;;;;;;;;5014327;28;20400;-71
2022/03/20 16:20:50;;;;;;;;;;;;;;;;;;4999816;28;19959;-71
2022/03/20 16:28:45;;;;;;;;;;;;;;;;;;5017716;28;20279;-70
2022/03/20 16:31:11;;;;;;;;;;;;;;;;;;5021086;28;20505;-72
2022/03/20 16:33:37;;;;;;;;;;;;;;;;;;5015272;28;20271;-70
2022/03/20 16:36:03;;;;;;;;;;;;;;;;;;5019405;28;19925;-71
2022/03/20 16:38:29;;;;;;;;;;;;;;;;;;5014729;28;19917;-73
2022/03/20 16:40:55;;;;;;;;;;;;;;;;;;5023187;28;19925;-73
2022/03/20 16:43:25;;;;;;;;;;;;;;;;;;5016486;28;19921;-73
2022/03/20 16:45:51;;;;;;;;;;;;;;;;;;5019882;28;19921;-73
2022/03/20 16:48:23;;;;;;;;;;;;;;;;;;5008799;28;20222;-69
2022/03/20 16:50:49;;;;;;;;;;;;;;;;;;5020144;28;19921;-70
2022/03/20 16:53:15;;;;;;;;;;;;;;;;;;5019903;28;19924;-70
2022/03/20 16:55:41;;;;;;;;;;;;;;;;;;5019103;28;19923;-71
2022/03/20 16:58:07;;;;;;;;;;;;;;;;;;5024798;28;20371;-70
2022/03/20 17:00:33;;;;;;;;;;;;;;;;;;5002437;28;19917;-69
2022/03/20 17:02:59;;;;;;;;;;;;;;;;;;5020845;28;19917;-71
2022/03/20 17:05:25;;;;;;;;;;;;;;;;;;5018504;28;19979;-68
2022/03/20 17:07:51;;;;;;;;;;;;;;;;;;5016222;28;19925;-69
2022/03/20 17:10:17;;;;;;;;;;;;;;;;;;5006686;28;19929;-69
2022/03/20 17:12:43;;;;;;;;;;;;;;;;;;5013206;28;20448;-69
2022/03/20 17:15:10;;;;;;;;;;;;;;;;;;5018101;28;19964;-69
2022/03/20 17:17:35;;;;;;;;;;;;;;;;;;5021623;28;20345;-69
2022/03/20 17:20:01;;;;;;;;;;;;;;;;;;5015638;28;20351;-69
2022/03/20 17:22:28;;;;;;;;;;;;;;;;;;5024597;28;19921;-70
2022/03/20 17:24:54;;;;;;;;;;;;;;;;;;5019309;28;20272;-70
2022/03/20 17:27:20;;;;;;;;;;;;;;;;;;5020971;28;20378;-69
2022/03/20 17:29:46;;;;;;;;;;;;;;;;;;5025710;28;19917;-69
2022/03/20 17:32:12;;;;;;;;;;;;;;;;;;5005517;28;19917;-69
2022/03/20 17:34:38;;;;;;;;;;;;;;;;;;5017224;28;19917;-69